CheckWX is a tool to help pilots better visualize weather data.  It is not intended as a substitute for an official pre-flight weather briefing.

08:55:00 UTC

KSGT METAR
Stuttgart Municipal Carl Humphrey Field Airport
Stuttgart, Arkansas, USA
Current

59 mins ago

KSGT 290756Z AUTO 06012KT 5SM BR OVC080 06/06 A2995 RMK AO2 SLP144 T00610056
Observed
Jan-29 @ 07:56 UTC
Wind
  • 060° at 12 KTS
Visibility
5 SM
Flight Rules
MVFR
Conditions
Mist
Cloud Levels
  • Overcast at 8,000' AGL
Temperature
C / 43°F
Dewpoint
C / 43°F
Humidity
100%
Altimeter
29.95" Hg
Pressure
1014.22 hPa
Previous

2 hours ago

KSGT 290656Z AUTO 06010KT 5SM BR BKN060 OVC075 06/06 A2997 RMK AO2 RAB26E42 SLP150 P0000 T00610056
Observed
Jan-29 @ 06:56 UTC
Wind
  • 060° at 10 KTS
Visibility
5 SM
Flight Rules
MVFR
Conditions
Mist
Cloud Levels
  • Broken at 6,000' AGL
  • Overcast at 7,500' AGL
Temperature
C / 43°F
Dewpoint
C / 43°F
Humidity
100%
Altimeter
29.97" Hg
Pressure
1014.92 hPa
Current Rain
0.01"
Previous

3 hours ago

KSGT 290621Z AUTO 06011KT 6SM BR SCT005 OVC055 06/06 A2998 RMK AO2
Observed
Jan-29 @ 06:21 UTC
Wind
  • 060° at 11 KTS
Visibility
6 SM
Flight Rules
VFR
Conditions
Mist
Cloud Levels
  • Scattered at 500' AGL
  • Overcast at 5,500' AGL
Temperature
C / 43°F
Dewpoint
C / 43°F
Humidity
100%
Altimeter
29.98" Hg
Pressure
1015.22 hPa